createdAt,value
2022-08-25T00:00:11.255Z,996.32
2022-08-25T00:01:11.204Z,996.35
2022-08-25T00:02:11.219Z,996.35
2022-08-25T00:03:11.241Z,996.33
2022-08-25T00:04:11.165Z,996.33
2022-08-25T00:05:11.179Z,996.35
2022-08-25T00:06:11.134Z,996.34
2022-08-25T00:07:11.085Z,996.35
2022-08-25T00:08:11.071Z,996.39
2022-08-25T00:09:11.052Z,996.37
2022-08-25T00:10:11.036Z,996.34
2022-08-25T00:11:11.018Z,996.29
2022-08-25T00:12:10.998Z,996.33
2022-08-25T00:13:10.979Z,996.32
2022-08-25T00:14:11.004Z,996.33
2022-08-25T00:15:10.942Z,996.32
2022-08-25T00:16:10.986Z,996.35
2022-08-25T00:17:10.917Z,996.33
2022-08-25T00:18:19.463Z,996.32
2022-08-25T00:19:10.865Z,996.32
2022-08-25T00:20:10.850Z,996.33
2022-08-25T00:21:10.848Z,996.29
2022-08-25T00:22:10.816Z,996.37
2022-08-25T00:23:10.806Z,996.32
2022-08-25T00:24:10.778Z,996.36
2022-08-25T00:25:10.765Z,996.35
2022-08-25T00:26:10.763Z,996.32
2022-08-25T00:27:10.727Z,996.31
2022-08-25T00:28:10.999Z,996.31
2022-08-25T00:29:10.695Z,996.25
2022-08-25T00:30:10.682Z,996.25
2022-08-25T00:31:10.718Z,996.25
2022-08-25T00:32:10.644Z,996.30
2022-08-25T00:33:10.635Z,996.26
2022-08-25T00:34:10.606Z,996.23
2022-08-25T00:35:10.584Z,996.24
2022-08-25T00:36:10.573Z,996.22
2022-08-25T00:37:10.556Z,996.24
2022-08-25T00:38:10.540Z,996.24
2022-08-25T00:39:10.517Z,996.22
2022-08-25T00:40:10.568Z,996.22
2022-08-25T00:41:10.480Z,996.21
2022-08-25T00:42:11.904Z,996.21
2022-08-25T00:43:10.448Z,996.22
2022-08-25T00:44:10.446Z,996.21
2022-08-25T00:45:10.430Z,996.22
2022-08-25T00:46:10.444Z,996.18
2022-08-25T00:47:10.379Z,996.21
2022-08-25T00:48:10.387Z,996.18
2022-08-25T00:49:11.701Z,996.17
2022-08-25T00:50:10.339Z,996.16
2022-08-25T00:51:10.318Z,996.18
2022-08-25T00:52:10.296Z,996.18
2022-08-25T00:53:10.278Z,996.20
2022-08-25T00:54:10.264Z,996.20
2022-08-25T00:55:10.244Z,996.19
2022-08-25T00:56:10.230Z,996.17
2022-08-25T00:57:10.218Z,996.16
2022-08-25T00:58:10.204Z,996.14
2022-08-25T00:59:10.177Z,996.14
2022-08-25T01:00:10.163Z,996.11
2022-08-25T01:01:10.165Z,996.12
2022-08-25T01:02:13.557Z,996.12
2022-08-25T01:03:10.112Z,996.11
2022-08-25T01:04:10.090Z,996.10
2022-08-25T01:05:10.088Z,996.11
2022-08-25T01:06:10.058Z,996.13
2022-08-25T01:07:11.230Z,996.11
2022-08-25T01:08:10.177Z,996.13
2022-08-25T01:09:10.006Z,996.11
2022-08-25T01:10:09.992Z,996.12
2022-08-25T01:11:09.982Z,996.11
2022-08-25T01:12:09.954Z,996.13
2022-08-25T01:13:10.338Z,996.14
2022-08-25T01:14:09.929Z,996.14
2022-08-25T01:15:09.912Z,996.12
2022-08-25T01:16:10.086Z,996.14
2022-08-25T01:17:09.874Z,996.16
2022-08-25T01:18:09.857Z,996.13
2022-08-25T01:19:09.842Z,996.14
2022-08-25T01:20:09.824Z,996.15
2022-08-25T01:21:09.809Z,996.12
2022-08-25T01:22:09.787Z,996.11
2022-08-25T01:23:09.770Z,996.08
2022-08-25T01:24:09.753Z,996.07
2022-08-25T01:25:09.738Z,996.10
2022-08-25T01:26:09.727Z,996.12
2022-08-25T01:27:09.703Z,996.11
2022-08-25T01:28:09.684Z,996.12
2022-08-25T01:29:09.671Z,996.12
2022-08-25T01:30:09.658Z,996.12
2022-08-25T01:31:24.053Z,996.10
2022-08-25T01:32:09.623Z,996.10
2022-08-25T01:33:09.614Z,996.10
2022-08-25T01:34:09.590Z,996.06
2022-08-25T01:35:09.581Z,996.09
2022-08-25T01:36:09.552Z,996.06
2022-08-25T01:37:09.538Z,996.06
2022-08-25T01:38:09.515Z,996.06
2022-08-25T01:39:09.508Z,996.05
2022-08-25T01:40:09.543Z,996.06
2022-08-25T01:41:09.462Z,996.08
2022-08-25T01:42:09.459Z,996.08
2022-08-25T01:43:09.450Z,996.08
2022-08-25T01:44:10.905Z,996.08
2022-08-25T01:45:09.403Z,996.07
2022-08-25T01:46:09.468Z,996.08
2022-08-25T01:47:09.366Z,996.11
2022-08-25T01:48:09.348Z,996.09
2022-08-25T01:49:09.325Z,996.14
2022-08-25T01:50:09.313Z,996.14
2022-08-25T01:51:09.295Z,996.14
2022-08-25T01:52:09.284Z,996.16
2022-08-25T01:53:09.264Z,996.13
2022-08-25T01:54:09.251Z,996.12
2022-08-25T01:55:09.228Z,996.14
2022-08-25T01:56:09.699Z,996.12
2022-08-25T01:57:09.192Z,996.09
2022-08-25T01:58:09.201Z,996.13
2022-08-25T01:59:09.159Z,996.12
2022-08-25T02:00:09.161Z,996.13
2022-08-25T02:01:09.149Z,996.10
2022-08-25T02:02:09.173Z,996.11
2022-08-25T02:03:15.728Z,996.15
2022-08-25T02:04:09.079Z,996.15
2022-08-25T02:05:09.054Z,996.11
2022-08-25T02:06:09.034Z,996.14
2022-08-25T02:07:09.041Z,996.14
2022-08-25T02:08:08.998Z,996.15
2022-08-25T02:09:08.988Z,996.18
2022-08-25T02:10:08.975Z,996.17
2022-08-25T02:11:08.948Z,996.19
2022-08-25T02:12:08.923Z,996.13
2022-08-25T02:13:08.923Z,996.14
2022-08-25T02:14:08.931Z,996.11
2022-08-25T02:15:08.879Z,996.11
2022-08-25T02:16:08.859Z,996.11
2022-08-25T02:17:08.853Z,996.13
2022-08-25T02:18:08.832Z,996.14
2022-08-25T02:19:08.838Z,996.14
2022-08-25T02:20:08.802Z,996.18
2022-08-25T02:21:08.785Z,996.16
2022-08-25T02:22:08.749Z,996.20
2022-08-25T02:23:08.742Z,996.22
2022-08-25T02:24:08.715Z,996.19
2022-08-25T02:25:08.695Z,996.17
2022-08-25T02:26:08.675Z,996.22
2022-08-25T02:27:08.654Z,996.17
2022-08-25T02:28:08.639Z,996.22
2022-08-25T02:29:08.625Z,996.20
2022-08-25T02:30:08.602Z,996.24
2022-08-25T02:31:08.610Z,996.19
2022-08-25T02:32:08.567Z,996.23
2022-08-25T02:33:08.547Z,996.28
2022-08-25T02:34:08.531Z,996.26
2022-08-25T02:35:08.511Z,996.22
2022-08-25T02:36:08.492Z,996.27
2022-08-25T02:37:08.471Z,996.27
2022-08-25T02:38:08.459Z,996.29
2022-08-25T02:39:08.445Z,996.27
2022-08-25T02:40:08.463Z,996.25
2022-08-25T02:41:08.396Z,996.21
2022-08-25T02:42:08.394Z,996.21
2022-08-25T02:43:08.358Z,996.20
2022-08-25T02:44:08.339Z,996.20
2022-08-25T02:45:08.341Z,996.19
2022-08-25T02:46:08.333Z,996.19
2022-08-25T02:47:08.283Z,996.17
2022-08-25T02:48:08.264Z,996.17
2022-08-25T02:49:08.252Z,996.14
2022-08-25T02:50:08.231Z,996.12
2022-08-25T02:51:08.203Z,996.16
2022-08-25T02:52:08.190Z,996.15
2022-08-25T02:53:08.166Z,996.15
2022-08-25T02:54:08.154Z,996.14
2022-08-25T02:55:08.132Z,996.14
2022-08-25T02:56:08.110Z,996.15
2022-08-25T02:57:08.096Z,996.15
2022-08-25T02:58:08.076Z,996.12
2022-08-25T02:59:08.051Z,996.12
2022-08-25T03:00:08.028Z,996.09
2022-08-25T03:01:08.088Z,996.08
2022-08-25T03:02:07.998Z,996.11
2022-08-25T03:03:07.974Z,996.10
2022-08-25T03:04:07.952Z,996.06
2022-08-25T03:05:08.021Z,996.05
2022-08-25T03:06:07.918Z,996.06
2022-08-25T03:07:07.915Z,996.03
2022-08-25T03:08:07.873Z,996.04
2022-08-25T03:09:07.865Z,996.03
2022-08-25T03:10:07.883Z,996.01
2022-08-25T03:11:07.835Z,996.03
2022-08-25T03:12:07.869Z,996.02
2022-08-25T03:13:07.781Z,996.00
2022-08-25T03:14:07.797Z,995.97
2022-08-25T03:15:12.854Z,995.97
2022-08-25T03:16:10.879Z,995.95
2022-08-25T03:17:08.672Z,995.97
2022-08-25T03:18:08.666Z,995.94
2022-08-25T03:19:07.660Z,995.97
2022-08-25T03:20:07.648Z,995.96
2022-08-25T03:21:07.619Z,995.93
2022-08-25T03:22:07.706Z,995.97
2022-08-25T03:23:07.591Z,995.95
2022-08-25T03:24:07.572Z,995.93
2022-08-25T03:25:07.545Z,995.97
2022-08-25T03:26:07.534Z,995.95
2022-08-25T03:27:07.510Z,995.95
2022-08-25T03:28:07.480Z,995.95
2022-08-25T03:29:07.463Z,995.97
2022-08-25T03:30:07.445Z,995.98
2022-08-25T03:31:07.426Z,995.97
2022-08-25T03:32:07.531Z,995.96
2022-08-25T03:33:07.388Z,995.99
2022-08-25T03:34:07.359Z,996.01
2022-08-25T03:35:07.344Z,996.00
2022-08-25T03:36:07.321Z,996.04
2022-08-25T03:37:07.311Z,996.00
2022-08-25T03:38:07.337Z,995.96
2022-08-25T03:39:07.263Z,995.96
2022-08-25T03:40:07.269Z,995.97
2022-08-25T03:41:07.223Z,995.95
2022-08-25T03:42:07.203Z,995.92
2022-08-25T03:43:07.201Z,995.95
2022-08-25T03:44:07.160Z,995.96
2022-08-25T03:45:07.142Z,995.99
2022-08-25T03:46:07.151Z,995.99
2022-08-25T03:47:07.111Z,995.98
2022-08-25T03:48:07.088Z,996.02
2022-08-25T03:49:07.061Z,996.01
2022-08-25T03:50:07.090Z,996.02
2022-08-25T03:51:07.027Z,996.05
2022-08-25T03:52:07.005Z,996.04
2022-08-25T03:53:06.985Z,996.05
2022-08-25T03:54:06.973Z,996.07
2022-08-25T03:55:06.953Z,996.08
2022-08-25T03:56:06.924Z,996.07
2022-08-25T03:57:06.906Z,996.07
2022-08-25T03:58:06.971Z,996.07
2022-08-25T03:59:06.864Z,996.08
2022-08-25T04:00:06.855Z,996.13
2022-08-25T04:01:06.852Z,996.14
2022-08-25T04:02:06.837Z,996.13
2022-08-25T04:03:06.781Z,996.10
2022-08-25T04:04:06.758Z,996.13
2022-08-25T04:05:06.743Z,996.13
2022-08-25T04:06:06.725Z,996.08
2022-08-25T04:07:06.892Z,996.04
2022-08-25T04:08:06.975Z,996.00
2022-08-25T04:09:06.663Z,996.01
2022-08-25T04:10:06.647Z,995.99
2022-08-25T04:11:06.627Z,995.98
2022-08-25T04:12:06.601Z,995.94
2022-08-25T04:13:06.582Z,995.92
2022-08-25T04:14:06.565Z,995.93
2022-08-25T04:15:06.540Z,995.89
2022-08-25T04:16:06.580Z,995.86
2022-08-25T04:17:06.510Z,995.83
2022-08-25T04:18:06.686Z,995.79
2022-08-25T04:19:06.458Z,995.77
2022-08-25T04:20:06.463Z,995.77
2022-08-25T04:21:06.422Z,995.80
2022-08-25T04:22:06.395Z,995.75
2022-08-25T04:23:06.397Z,995.78
2022-08-25T04:24:06.355Z,995.79
2022-08-25T04:25:06.336Z,995.84
2022-08-25T04:26:06.316Z,995.80
2022-08-25T04:27:06.295Z,995.85
2022-08-25T04:28:06.518Z,995.85
2022-08-25T04:29:06.252Z,995.87
2022-08-25T04:30:06.244Z,995.89
2022-08-25T04:31:06.212Z,995.89
2022-08-25T04:32:06.243Z,995.88
2022-08-25T04:33:06.180Z,995.89
2022-08-25T04:34:13.466Z,995.86
2022-08-25T04:35:06.132Z,995.86
2022-08-25T04:36:11.410Z,995.89
2022-08-25T04:37:06.090Z,995.83
2022-08-25T04:38:06.196Z,995.83
2022-08-25T04:39:06.049Z,995.85
2022-08-25T04:40:06.081Z,995.84
2022-08-25T04:41:06.008Z,995.80
2022-08-25T04:42:05.991Z,995.82
2022-08-25T04:43:05.967Z,995.81
2022-08-25T04:44:05.946Z,995.81
2022-08-25T04:45:05.938Z,995.80
2022-08-25T04:46:05.955Z,995.80
2022-08-25T04:47:05.911Z,995.80
2022-08-25T04:48:06.055Z,995.84
2022-08-25T04:49:05.843Z,995.87
2022-08-25T04:50:05.827Z,995.86
2022-08-25T04:51:05.805Z,995.90
2022-08-25T04:52:05.784Z,995.94
2022-08-25T04:53:05.763Z,995.93
2022-08-25T04:54:05.745Z,995.97
2022-08-25T04:55:05.729Z,995.95
2022-08-25T04:56:05.699Z,996.00
2022-08-25T04:57:05.692Z,996.02
2022-08-25T04:58:05.842Z,996.04
2022-08-25T04:59:05.644Z,996.05
2022-08-25T05:00:05.620Z,996.09
2022-08-25T05:01:05.648Z,996.12
2022-08-25T05:02:05.588Z,996.12
2022-08-25T05:03:05.564Z,996.11
2022-08-25T05:04:05.640Z,996.09
2022-08-25T05:05:05.578Z,996.09
2022-08-25T05:06:05.502Z,996.08
2022-08-25T05:07:05.484Z,996.06
2022-08-25T05:08:05.612Z,996.03
2022-08-25T05:09:05.453Z,996.02
2022-08-25T05:10:05.416Z,995.94
2022-08-25T05:11:05.410Z,995.91
2022-08-25T05:12:05.407Z,995.94
2022-08-25T05:13:05.352Z,995.89
2022-08-25T05:14:05.358Z,995.90
2022-08-25T05:15:05.322Z,995.91
2022-08-25T05:16:05.349Z,995.92
2022-08-25T05:17:05.271Z,995.96
2022-08-25T05:18:05.286Z,995.97
2022-08-25T05:19:05.229Z,995.95
2022-08-25T05:20:05.250Z,995.98
2022-08-25T05:21:05.243Z,995.99
2022-08-25T05:22:05.186Z,995.99
2022-08-25T05:23:05.179Z,995.95
2022-08-25T05:24:05.184Z,995.96
2022-08-25T05:25:05.126Z,995.93
2022-08-25T05:26:05.101Z,995.95
2022-08-25T05:27:05.083Z,995.92
2022-08-25T05:28:05.198Z,995.98
2022-08-25T05:29:05.039Z,995.95
2022-08-25T05:30:05.012Z,996.00
2022-08-25T05:31:05.010Z,995.97
2022-08-25T05:32:05.005Z,995.99
2022-08-25T05:33:04.958Z,995.98
2022-08-25T05:34:04.943Z,995.99
2022-08-25T05:35:04.919Z,995.97
2022-08-25T05:36:04.891Z,995.97
2022-08-25T05:37:06.607Z,996.00
2022-08-25T05:38:05.064Z,995.96
2022-08-25T05:39:04.840Z,995.92
2022-08-25T05:40:04.840Z,996.00
2022-08-25T05:41:04.787Z,995.93
2022-08-25T05:42:04.768Z,995.93
2022-08-25T05:43:04.755Z,995.92
2022-08-25T05:44:04.737Z,995.90
2022-08-25T05:45:04.707Z,995.91
2022-08-25T05:46:04.763Z,995.87
2022-08-25T05:47:04.664Z,995.86
2022-08-25T05:48:04.759Z,995.84
2022-08-25T05:49:04.626Z,995.86
2022-08-25T05:50:04.620Z,995.86
2022-08-25T05:51:04.613Z,995.82
2022-08-25T05:52:04.570Z,995.82
2022-08-25T05:53:04.552Z,995.77
2022-08-25T05:54:04.532Z,995.81
2022-08-25T05:55:04.508Z,995.75
2022-08-25T05:56:04.495Z,995.74
2022-08-25T05:57:04.476Z,995.73
2022-08-25T05:58:04.579Z,995.73
2022-08-25T05:59:09.157Z,995.75
2022-08-25T06:00:04.417Z,995.70
2022-08-25T06:01:04.467Z,995.69
2022-08-25T06:02:04.372Z,995.70
2022-08-25T06:03:04.354Z,995.72
2022-08-25T06:04:04.414Z,995.65
2022-08-25T06:05:04.310Z,995.68
2022-08-25T06:06:04.300Z,995.67
2022-08-25T06:07:04.277Z,995.66
2022-08-25T06:08:04.507Z,995.66
2022-08-25T06:09:04.234Z,995.67
2022-08-25T06:10:04.226Z,995.69
2022-08-25T06:11:04.193Z,995.67
2022-08-25T06:12:04.184Z,995.63
2022-08-25T06:13:04.155Z,995.64
2022-08-25T06:14:04.154Z,995.63
2022-08-25T06:15:04.128Z,995.61
2022-08-25T06:16:04.175Z,995.65
2022-08-25T06:17:04.087Z,995.64
2022-08-25T06:18:04.154Z,995.66
2022-08-25T06:19:04.046Z,995.64
2022-08-25T06:20:04.027Z,995.67
2022-08-25T06:21:04.014Z,995.64
2022-08-25T06:22:04.002Z,995.64
2022-08-25T06:23:03.981Z,995.65
2022-08-25T06:24:03.955Z,995.64
2022-08-25T06:25:03.940Z,995.65
2022-08-25T06:26:03.935Z,995.65
2022-08-25T06:27:03.940Z,995.67
2022-08-25T06:28:03.920Z,995.68
2022-08-25T06:29:03.863Z,995.67
2022-08-25T06:30:07.652Z,995.66
2022-08-25T06:31:03.852Z,995.71
2022-08-25T06:32:03.812Z,995.72
2022-08-25T06:33:03.795Z,995.71
2022-08-25T06:34:03.775Z,995.73
2022-08-25T06:35:03.765Z,995.71
2022-08-25T06:36:03.742Z,995.71
2022-08-25T06:37:03.733Z,995.71
2022-08-25T06:38:03.765Z,995.71
2022-08-25T06:39:03.704Z,995.69
2022-08-25T06:40:03.752Z,995.76
2022-08-25T06:41:03.654Z,995.69
2022-08-25T06:42:03.640Z,995.71
2022-08-25T06:43:03.650Z,995.74
2022-08-25T06:44:04.871Z,995.69
2022-08-25T06:45:03.594Z,995.70
2022-08-25T06:46:03.572Z,995.70
2022-08-25T06:47:03.614Z,995.70
2022-08-25T06:48:03.543Z,995.75
2022-08-25T06:49:03.525Z,995.74
2022-08-25T06:50:03.511Z,995.75
2022-08-25T06:51:03.495Z,995.74
2022-08-25T06:52:03.481Z,995.78
2022-08-25T06:53:03.495Z,995.80
2022-08-25T06:54:03.444Z,995.81
2022-08-25T06:55:03.434Z,995.84
2022-08-25T06:56:06.455Z,995.82
2022-08-25T06:57:03.398Z,995.86
2022-08-25T06:58:03.411Z,995.84
2022-08-25T06:59:03.363Z,995.88
2022-08-25T07:00:03.349Z,995.91
2022-08-25T07:01:03.423Z,995.91
2022-08-25T07:02:03.711Z,995.92
2022-08-25T07:03:03.300Z,995.92
2022-08-25T07:04:03.743Z,995.88
2022-08-25T07:05:03.270Z,995.95
2022-08-25T07:06:03.257Z,995.87
2022-08-25T07:07:03.265Z,995.88
2022-08-25T07:08:03.282Z,995.91
2022-08-25T07:09:03.207Z,995.89
2022-08-25T07:10:03.211Z,995.90
2022-08-25T07:11:03.179Z,995.91
2022-08-25T07:12:03.182Z,995.90
2022-08-25T07:13:03.150Z,995.87
2022-08-25T07:14:03.134Z,995.89
2022-08-25T07:15:19.391Z,995.92
2022-08-25T07:16:03.156Z,995.85
2022-08-25T07:17:03.087Z,995.87
2022-08-25T07:18:03.145Z,995.79
2022-08-25T07:19:03.077Z,995.83
2022-08-25T07:20:03.068Z,995.82
2022-08-25T07:21:03.038Z,995.83
2022-08-25T07:22:03.021Z,995.87
2022-08-25T07:23:02.999Z,995.83
2022-08-25T07:24:03.060Z,995.82
2022-08-25T07:25:02.980Z,995.77
2022-08-25T07:26:15.589Z,995.76
2022-08-25T07:27:02.989Z,995.79
2022-08-25T07:28:02.958Z,995.76
2022-08-25T07:29:03.101Z,995.74
2022-08-25T07:30:02.907Z,995.77
2022-08-25T07:31:02.930Z,995.73
2022-08-25T07:32:02.890Z,995.75
2022-08-25T07:33:06.790Z,995.71
2022-08-25T07:34:02.857Z,995.72
2022-08-25T07:35:02.888Z,995.73
2022-08-25T07:36:02.832Z,995.71
2022-08-25T07:37:02.816Z,995.72
2022-08-25T07:38:02.813Z,995.68
2022-08-25T07:39:02.792Z,995.68
2022-08-25T07:40:02.850Z,995.71
2022-08-25T07:41:02.777Z,995.75
2022-08-25T07:42:02.758Z,995.74
2022-08-25T07:43:02.813Z,995.74
2022-08-25T07:44:02.731Z,995.74
2022-08-25T07:45:02.744Z,995.70
2022-08-25T07:46:02.711Z,995.70
2022-08-25T07:47:02.697Z,995.67
2022-08-25T07:48:02.682Z,995.68
2022-08-25T07:49:02.670Z,995.69
2022-08-25T07:50:02.659Z,995.71
2022-08-25T07:51:05.552Z,995.73
2022-08-25T07:52:05.483Z,995.71
2022-08-25T07:53:02.639Z,995.72
2022-08-25T07:54:02.615Z,995.77
2022-08-25T07:55:02.606Z,995.76
2022-08-25T07:57:02.576Z,995.76
2022-08-25T07:58:02.713Z,995.77
2022-08-25T07:59:02.567Z,995.75
2022-08-25T08:00:02.540Z,995.71
2022-08-25T08:01:02.532Z,995.70
2022-08-25T08:02:02.631Z,995.71
2022-08-25T08:03:03.825Z,995.66
2022-08-25T08:04:03.673Z,995.70
2022-08-25T08:05:02.483Z,995.69
2022-08-25T08:06:02.474Z,995.70
2022-08-25T08:07:02.457Z,995.71
2022-08-25T08:08:02.503Z,995.70
2022-08-25T08:09:02.438Z,995.74
2022-08-25T08:10:29.736Z,995.74
2022-08-25T08:11:04.606Z,995.81
2022-08-25T08:12:02.406Z,995.79
2022-08-25T08:13:02.520Z,995.76
2022-08-25T08:14:02.379Z,995.79
2022-08-25T08:15:02.371Z,995.78
2022-08-25T08:16:02.430Z,995.83
2022-08-25T08:17:02.359Z,995.81
2022-08-25T08:18:03.158Z,995.83
2022-08-25T08:19:02.358Z,995.82
2022-08-25T08:20:02.317Z,995.81
2022-08-25T08:21:02.310Z,995.76
2022-08-25T08:22:02.528Z,995.76
2022-08-25T08:23:02.317Z,995.73
2022-08-25T08:24:05.060Z,995.69
2022-08-25T08:25:02.265Z,995.70
2022-08-25T08:26:02.254Z,995.72
2022-08-25T08:27:02.245Z,995.75
2022-08-25T08:28:02.274Z,995.72
2022-08-25T08:29:02.236Z,995.73
2022-08-25T08:30:02.219Z,995.72
2022-08-25T08:31:02.250Z,995.73
2022-08-25T08:32:02.198Z,995.74
2022-08-25T08:33:11.251Z,995.70
2022-08-25T08:34:02.194Z,995.69
2022-08-25T08:35:02.177Z,995.73
2022-08-25T08:36:05.173Z,995.71
2022-08-25T08:37:02.172Z,995.73
2022-08-25T08:38:02.141Z,995.76
2022-08-25T08:39:02.131Z,995.72
2022-08-25T08:40:03.363Z,995.70
2022-08-25T08:41:02.109Z,995.70
2022-08-25T08:42:12.598Z,995.71
2022-08-25T08:43:02.155Z,995.70
2022-08-25T08:44:02.177Z,995.66
2022-08-25T08:45:02.774Z,995.68
2022-08-25T08:46:02.122Z,995.67
2022-08-25T08:47:02.054Z,995.65
2022-08-25T08:48:02.141Z,995.69
2022-08-25T08:49:02.060Z,995.63
2022-08-25T08:50:02.048Z,995.65
2022-08-25T08:51:02.028Z,995.68
2022-08-25T08:52:02.011Z,995.68
2022-08-25T08:53:02.002Z,995.69
2022-08-25T08:54:01.993Z,995.66
2022-08-25T08:55:01.997Z,995.67
2022-08-25T08:56:01.977Z,995.66
2022-08-25T08:57:01.959Z,995.66
2022-08-25T08:58:01.966Z,995.63
2022-08-25T08:59:06.242Z,995.64
2022-08-25T09:00:01.941Z,995.61
2022-08-25T09:01:01.926Z,995.59
2022-08-25T09:02:02.054Z,995.55
2022-08-25T09:03:01.979Z,995.57
2022-08-25T09:04:01.903Z,995.56
2022-08-25T09:05:01.894Z,995.57
2022-08-25T09:06:01.883Z,995.59
2022-08-25T09:07:01.882Z,995.63
2022-08-25T09:08:01.860Z,995.66
2022-08-25T09:09:01.873Z,995.64
2022-08-25T09:10:01.847Z,995.67
2022-08-25T09:11:01.855Z,995.65
2022-08-25T09:12:01.854Z,995.61
2022-08-25T09:13:01.825Z,995.59
2022-08-25T09:14:01.834Z,995.60
2022-08-25T09:15:01.799Z,995.60
2022-08-25T09:16:01.830Z,995.57
2022-08-25T09:17:01.780Z,995.61
2022-08-25T09:18:01.770Z,995.56
2022-08-25T09:19:01.773Z,995.58
2022-08-25T09:20:01.761Z,995.60
2022-08-25T09:21:01.765Z,995.58
2022-08-25T09:22:01.749Z,995.58
2022-08-25T09:23:01.755Z,995.56
2022-08-25T09:24:01.735Z,995.50
2022-08-25T09:25:03.425Z,995.50
2022-08-25T09:26:01.695Z,995.50
2022-08-25T09:27:01.691Z,995.50
2022-08-25T09:28:01.714Z,995.47
2022-08-25T09:29:01.671Z,995.44
2022-08-25T09:30:01.661Z,995.44
2022-08-25T09:31:01.739Z,995.42
2022-08-25T09:32:01.644Z,995.44
2022-08-25T09:33:01.642Z,995.41
2022-08-25T09:34:01.624Z,995.45
2022-08-25T09:35:01.638Z,995.42
2022-08-25T09:36:01.604Z,995.44
2022-08-25T09:37:01.599Z,995.43
2022-08-25T09:38:01.593Z,995.40
2022-08-25T09:39:01.589Z,995.35
2022-08-25T09:40:01.649Z,995.32
2022-08-25T09:41:01.561Z,995.34
2022-08-25T09:42:01.553Z,995.38
2022-08-25T09:43:01.574Z,995.34
2022-08-25T09:44:01.541Z,995.32
2022-08-25T09:45:01.534Z,995.35
2022-08-25T09:46:01.575Z,995.27
2022-08-25T09:47:01.507Z,995.31
2022-08-25T09:48:01.500Z,995.35
2022-08-25T09:49:01.507Z,995.29
2022-08-25T09:50:01.484Z,995.32
2022-08-25T09:51:01.473Z,995.26
2022-08-25T09:52:01.467Z,995.28
2022-08-25T09:53:01.471Z,995.23
2022-08-25T09:54:01.445Z,995.17
2022-08-25T09:55:01.456Z,995.17
2022-08-25T09:56:01.447Z,995.13
2022-08-25T09:57:01.423Z,995.16
2022-08-25T09:58:01.414Z,995.17
2022-08-25T09:59:03.229Z,995.10
2022-08-25T10:00:01.397Z,995.10
2022-08-25T10:01:01.539Z,995.07
2022-08-25T10:02:01.469Z,995.07
2022-08-25T10:03:05.964Z,995.07
2022-08-25T10:04:01.434Z,995.09
2022-08-25T10:05:01.400Z,995.04
2022-08-25T10:06:01.355Z,995.02
2022-08-25T10:07:01.341Z,994.99
2022-08-25T10:08:01.335Z,995.04
2022-08-25T10:09:01.342Z,994.99
2022-08-25T10:10:01.328Z,995.03
2022-08-25T10:11:01.315Z,994.98
2022-08-25T10:12:01.319Z,994.93
2022-08-25T10:13:01.468Z,995.00
2022-08-25T10:14:01.293Z,994.95
2022-08-25T10:15:01.279Z,994.96
2022-08-25T10:16:01.285Z,994.94
2022-08-25T10:17:01.264Z,994.93
2022-08-25T10:18:01.251Z,994.89
2022-08-25T10:19:01.250Z,994.91
2022-08-25T10:20:01.235Z,994.89
2022-08-25T10:21:01.233Z,994.84
2022-08-25T10:22:01.229Z,994.82
2022-08-25T10:23:01.339Z,994.78
2022-08-25T10:24:01.208Z,994.83
2022-08-25T10:25:01.197Z,994.83
2022-08-25T10:26:03.645Z,994.75
2022-08-25T10:27:01.196Z,994.76
2022-08-25T10:28:01.176Z,994.76
2022-08-25T10:29:01.173Z,994.76
2022-08-25T10:30:01.161Z,994.77
2022-08-25T10:31:01.192Z,994.73
2022-08-25T10:32:01.150Z,994.74
2022-08-25T10:33:01.183Z,994.76
2022-08-25T10:34:01.143Z,994.70
2022-08-25T10:35:01.130Z,994.70
2022-08-25T10:36:01.122Z,994.69
2022-08-25T10:37:01.115Z,994.67
2022-08-25T10:38:01.113Z,994.64
2022-08-25T10:39:01.751Z,994.65
2022-08-25T10:40:01.193Z,994.65
2022-08-25T10:41:01.092Z,994.64
2022-08-25T10:42:01.102Z,994.65
2022-08-25T10:43:01.204Z,994.64
2022-08-25T10:44:01.082Z,994.62
2022-08-25T10:45:01.090Z,994.59
2022-08-25T10:46:01.096Z,994.62
2022-08-25T10:47:01.069Z,994.64
2022-08-25T10:48:01.060Z,994.58
2022-08-25T10:49:01.049Z,994.60
2022-08-25T10:50:01.050Z,994.57
2022-08-25T10:51:01.063Z,994.57
2022-08-25T10:52:01.038Z,994.57
2022-08-25T10:53:01.093Z,994.53
2022-08-25T10:54:01.025Z,994.50
2022-08-25T10:55:01.026Z,994.49
2022-08-25T10:56:01.028Z,994.52
2022-08-25T10:57:01.760Z,994.44
2022-08-25T10:58:01.024Z,994.43
2022-08-25T10:59:01.011Z,994.45
2022-08-25T11:00:01.007Z,994.43
2022-08-25T11:01:01.009Z,994.46
2022-08-25T11:02:01.012Z,994.34
2022-08-25T11:03:01.083Z,994.33
2022-08-25T11:04:00.977Z,994.31
2022-08-25T11:05:01.033Z,994.38
2022-08-25T11:06:00.970Z,994.35
2022-08-25T11:07:00.965Z,994.34
2022-08-25T11:08:00.965Z,994.34
2022-08-25T11:09:00.960Z,994.29
2022-08-25T11:10:00.970Z,994.26
2022-08-25T11:11:00.951Z,994.28
2022-08-25T11:12:00.966Z,994.25
2022-08-25T11:13:00.974Z,994.26
2022-08-25T11:14:02.156Z,994.28
2022-08-25T11:15:01.028Z,994.28
2022-08-25T11:16:16.479Z,994.29
2022-08-25T11:17:00.974Z,994.35
2022-08-25T11:18:00.931Z,994.30
2022-08-25T11:19:00.930Z,994.27
2022-08-25T11:20:00.936Z,994.22
2022-08-25T11:21:00.940Z,994.22
2022-08-25T11:22:00.911Z,994.21
2022-08-25T11:23:00.910Z,994.22
2022-08-25T11:24:00.924Z,994.13
2022-08-25T11:25:00.905Z,994.16
2022-08-25T11:26:00.900Z,994.21
2022-08-25T11:27:00.896Z,994.23
2022-08-25T11:28:00.978Z,994.21
2022-08-25T11:29:00.891Z,994.21
2022-08-25T11:30:00.887Z,994.16
2022-08-25T11:31:00.910Z,994.14
2022-08-25T11:32:00.875Z,994.20
2022-08-25T11:33:00.881Z,994.18
2022-08-25T11:34:00.870Z,994.15
2022-08-25T11:35:00.869Z,994.13
2022-08-25T11:36:00.873Z,994.15
2022-08-25T11:37:00.865Z,994.17
2022-08-25T11:38:00.871Z,994.13
2022-08-25T11:39:00.868Z,994.11
2022-08-25T11:40:00.913Z,994.07
2022-08-25T11:41:00.864Z,994.12
2022-08-25T11:42:00.861Z,994.11
2022-08-25T11:43:00.860Z,994.04
2022-08-25T11:44:00.890Z,994.05
2022-08-25T11:45:00.855Z,994.06
2022-08-25T11:46:00.874Z,994.05
2022-08-25T11:47:00.849Z,994.05
2022-08-25T11:48:00.859Z,994.09
2022-08-25T11:49:00.847Z,994.08
2022-08-25T11:50:00.840Z,994.09
2022-08-25T11:51:00.835Z,994.06
2022-08-25T11:52:03.045Z,994.01
2022-08-25T11:53:00.833Z,994.04
2022-08-25T11:54:00.835Z,994.04
2022-08-25T11:55:00.830Z,994.07
2022-08-25T11:56:00.825Z,994.05
2022-08-25T11:57:00.822Z,994.08
2022-08-25T11:58:00.825Z,994.05
2022-08-25T11:59:00.817Z,994.03
2022-08-25T12:00:00.819Z,994.03
2022-08-25T12:01:00.838Z,994.06
2022-08-25T12:02:00.809Z,994.01
2022-08-25T12:03:01.757Z,994.03
2022-08-25T12:04:00.879Z,994.01
2022-08-25T12:05:00.963Z,993.98
2022-08-25T12:06:00.811Z,994.01
2022-08-25T12:07:00.797Z,993.99
2022-08-25T12:08:00.795Z,993.98
2022-08-25T12:09:00.790Z,993.99
2022-08-25T12:10:00.790Z,993.98
2022-08-25T12:11:00.786Z,994.01
2022-08-25T12:12:00.816Z,993.99
2022-08-25T12:13:00.781Z,994.02
2022-08-25T12:14:00.778Z,993.99
2022-08-25T12:15:00.785Z,994.00
2022-08-25T12:16:00.776Z,993.97
2022-08-25T12:17:00.817Z,993.97
2022-08-25T12:18:03.319Z,993.97
2022-08-25T12:19:00.756Z,993.94
2022-08-25T12:20:00.746Z,993.98
2022-08-25T12:21:00.749Z,993.94
2022-08-25T12:22:00.736Z,993.91
2022-08-25T12:23:00.729Z,993.87
2022-08-25T12:24:00.742Z,993.86
2022-08-25T12:25:00.721Z,993.87
2022-08-25T12:26:00.713Z,993.81
2022-08-25T12:27:00.705Z,993.81
2022-08-25T12:28:00.797Z,993.79
2022-08-25T12:29:00.692Z,993.84